createdAt,value
2023-03-10T00:01:32.922Z,11.10
2023-03-10T00:04:01.805Z,11.00
2023-03-10T00:06:33.800Z,10.90
2023-03-10T00:09:01.951Z,10.80
2023-03-10T00:11:28.982Z,10.80
2023-03-10T00:13:56.036Z,10.90
2023-03-10T00:16:27.113Z,10.70
2023-03-10T00:18:54.852Z,10.60
2023-03-10T00:21:29.790Z,10.60
2023-03-10T00:23:57.212Z,10.60
2023-03-10T00:26:28.060Z,10.60
2023-03-10T00:28:56.047Z,10.60
2023-03-10T00:31:28.174Z,10.60
2023-03-10T00:33:57.039Z,10.60
2023-03-10T00:36:28.285Z,10.60
2023-03-10T00:38:56.615Z,10.60
2023-03-10T00:41:27.656Z,10.60
2023-03-10T00:43:54.969Z,10.70
2023-03-10T00:46:22.113Z,10.60
2023-03-10T00:48:49.124Z,10.60
2023-03-10T00:51:16.862Z,10.70
2023-03-10T00:53:44.668Z,10.60
2023-03-10T00:56:24.733Z,10.50
2023-03-10T00:58:57.825Z,10.60
2023-03-10T01:01:39.735Z,10.50
2023-03-10T01:04:12.433Z,10.50
2023-03-10T01:06:39.789Z,10.50
2023-03-10T01:09:07.760Z,10.50
2023-03-10T01:11:35.468Z,10.40
2023-03-10T01:14:05.573Z,10.40
2023-03-10T01:16:33.023Z,10.40
2023-03-10T01:19:00.252Z,10.40
2023-03-10T01:21:32.048Z,10.30
2023-03-10T01:24:00.290Z,10.30
2023-03-10T01:26:28.161Z,10.20
2023-03-10T01:28:55.214Z,10.10
2023-03-10T01:31:23.012Z,10.00
2023-03-10T01:33:50.096Z,9.90
2023-03-10T01:36:22.281Z,9.80
2023-03-10T01:38:50.091Z,9.80
2023-03-10T01:41:17.950Z,9.80
2023-03-10T01:43:48.869Z,9.70
2023-03-10T01:46:40.017Z,9.70
2023-03-10T01:49:34.181Z,9.70
2023-03-10T01:52:17.693Z,9.70
2023-03-10T01:54:49.584Z,9.70
2023-03-10T01:57:21.061Z,9.70
2023-03-10T01:59:48.993Z,9.70
2023-03-10T02:02:16.279Z,9.60
2023-03-10T02:04:48.869Z,9.60
2023-03-10T02:07:21.563Z,9.70
2023-03-10T02:09:50.707Z,9.70
2023-03-10T02:12:18.573Z,9.60
2023-03-10T02:14:47.873Z,9.70
2023-03-10T02:17:18.349Z,9.70
2023-03-10T02:19:45.182Z,9.70
2023-03-10T02:22:15.730Z,9.70
2023-03-10T02:24:57.589Z,9.70
2023-03-10T02:27:26.473Z,9.70
2023-03-10T02:30:16.692Z,9.80
2023-03-10T02:32:49.700Z,9.70
2023-03-10T02:35:17.231Z,9.70
2023-03-10T02:37:44.793Z,9.70
2023-03-10T02:40:29.828Z,9.70
2023-03-10T02:42:56.924Z,9.80
2023-03-10T02:45:31.169Z,9.80
2023-03-10T02:47:58.252Z,9.80
2023-03-10T02:50:28.833Z,9.80
2023-03-10T02:53:12.418Z,9.80
2023-03-10T02:55:40.313Z,9.80
2023-03-10T02:58:07.885Z,9.80
2023-03-10T03:00:41.615Z,9.80
2023-03-10T03:03:09.884Z,9.80
2023-03-10T03:05:37.339Z,9.90
2023-03-10T03:08:06.651Z,9.80
2023-03-10T03:10:34.680Z,9.80
2023-03-10T03:13:02.309Z,9.80
2023-03-10T03:15:29.408Z,9.80
2023-03-10T03:17:58.661Z,9.80
2023-03-10T03:20:31.140Z,9.80
2023-03-10T03:22:58.926Z,9.80
2023-03-10T03:25:28.992Z,9.70
2023-03-10T03:27:57.748Z,9.70
2023-03-10T03:30:27.599Z,9.60
2023-03-10T03:32:55.781Z,9.50
2023-03-10T03:35:30.221Z,9.50
2023-03-10T03:37:57.977Z,9.50
2023-03-10T03:40:35.716Z,9.70
2023-03-10T03:43:03.647Z,9.70
2023-03-10T03:45:32.254Z,9.60
2023-03-10T03:48:00.161Z,9.80
2023-03-10T03:50:28.112Z,9.80
2023-03-10T03:52:55.125Z,9.50
2023-03-10T03:55:22.487Z,9.30
2023-03-10T03:57:49.814Z,9.30
2023-03-10T04:00:23.476Z,9.30
2023-03-10T04:02:50.762Z,9.20
2023-03-10T04:05:18.120Z,9.10
2023-03-10T04:07:46.295Z,9.10
2023-03-10T04:10:18.481Z,9.10
2023-03-10T04:12:45.672Z,9.10
2023-03-10T04:15:13.089Z,9.10
2023-03-10T04:17:40.568Z,9.20
2023-03-10T04:20:10.020Z,9.20
2023-03-10T04:22:37.477Z,9.20
2023-03-10T04:25:06.174Z,9.30
2023-03-10T04:27:33.633Z,9.30
2023-03-10T04:30:00.969Z,9.30
2023-03-10T04:32:28.022Z,9.50
2023-03-10T04:34:55.066Z,9.50
2023-03-10T04:37:22.533Z,9.50
2023-03-10T04:39:49.696Z,9.50
2023-03-10T04:42:16.687Z,9.40
2023-03-10T04:44:43.641Z,9.30
2023-03-10T04:47:10.708Z,9.30
2023-03-10T04:49:38.893Z,9.30
2023-03-10T04:52:06.544Z,9.50
2023-03-10T04:54:33.634Z,9.50
2023-03-10T04:57:00.666Z,9.50
2023-03-10T04:59:27.635Z,9.50
2023-03-10T05:01:54.972Z,9.50
2023-03-10T05:04:22.214Z,9.50
2023-03-10T05:06:53.329Z,9.50
2023-03-10T05:09:20.596Z,9.50
2023-03-10T05:11:47.616Z,9.60
2023-03-10T05:14:15.572Z,9.60
2023-03-10T05:16:43.275Z,9.60
2023-03-10T05:19:10.279Z,9.70
2023-03-10T05:21:37.286Z,9.60
2023-03-10T05:24:04.429Z,9.60
2023-03-10T05:26:34.618Z,9.40
2023-03-10T05:29:01.829Z,9.20
2023-03-10T05:31:29.018Z,9.10
2023-03-10T05:33:56.956Z,9.00
2023-03-10T05:36:24.363Z,8.90
2023-03-10T05:38:51.453Z,8.80
2023-03-10T05:41:18.580Z,8.80
2023-03-10T05:43:45.753Z,8.80
2023-03-10T05:46:13.193Z,8.80
2023-03-10T05:48:40.378Z,8.80
2023-03-10T05:51:11.034Z,8.90
2023-03-10T05:53:39.396Z,8.90
2023-03-10T05:56:13.235Z,8.90
2023-03-10T05:58:40.903Z,8.90
2023-03-10T06:01:09.967Z,8.90
2023-03-10T06:03:38.146Z,9.00
2023-03-10T06:06:07.191Z,9.00
2023-03-10T06:08:34.915Z,9.00
2023-03-10T06:11:02.252Z,9.10
2023-03-10T06:13:29.373Z,9.10
2023-03-10T06:16:00.251Z,9.10
2023-03-10T06:18:28.703Z,9.10
2023-03-10T06:20:56.289Z,9.10
2023-03-10T06:23:24.553Z,9.10
2023-03-10T06:26:06.781Z,9.00
2023-03-10T06:28:37.687Z,9.00
2023-03-10T06:31:16.563Z,9.10
2023-03-10T06:33:44.413Z,9.10
2023-03-10T06:36:12.916Z,9.10
2023-03-10T06:38:40.627Z,9.10
2023-03-10T06:41:08.182Z,9.20
2023-03-10T06:43:36.222Z,9.20
2023-03-10T06:46:06.200Z,9.10
2023-03-10T06:48:34.493Z,9.10
2023-03-10T06:51:02.078Z,9.10
2023-03-10T06:53:29.135Z,9.10
2023-03-10T06:56:18.683Z,9.10
2023-03-10T06:58:46.346Z,9.30
2023-03-10T07:01:29.092Z,9.50
2023-03-10T07:03:57.442Z,9.60
2023-03-10T07:06:25.347Z,9.80
2023-03-10T07:08:54.469Z,9.90
2023-03-10T07:11:24.036Z,9.80
2023-03-10T07:13:51.606Z,9.70
2023-03-10T07:16:18.944Z,9.80
2023-03-10T07:18:46.043Z,9.80
2023-03-10T07:21:17.741Z,9.70
2023-03-10T07:23:45.569Z,9.70
2023-03-10T07:26:15.854Z,9.70
2023-03-10T07:28:43.099Z,9.80
2023-03-10T07:31:13.410Z,9.80
2023-03-10T07:33:40.546Z,9.80
2023-03-10T07:36:11.485Z,9.80
2023-03-10T07:38:38.794Z,9.70
2023-03-10T07:41:18.053Z,9.60
2023-03-10T07:43:46.162Z,9.60
2023-03-10T07:46:15.330Z,9.50
2023-03-10T07:48:42.791Z,9.40
2023-03-10T07:51:10.156Z,9.20
2023-03-10T07:53:37.224Z,9.20
2023-03-10T07:56:07.276Z,9.20
2023-03-10T07:58:35.712Z,9.10
2023-03-10T08:01:03.271Z,9.10
2023-03-10T08:03:30.500Z,9.20
2023-03-10T08:05:57.660Z,9.10
2023-03-10T08:08:24.632Z,9.00
2023-03-10T08:11:06.707Z,9.00
2023-03-10T08:13:33.964Z,9.00
2023-03-10T08:16:02.536Z,8.90
2023-03-10T08:18:30.965Z,8.80
2023-03-10T08:20:59.004Z,8.90
2023-03-10T08:23:26.454Z,8.90
2023-03-10T08:25:53.588Z,8.90
2023-03-10T08:28:21.251Z,8.90
2023-03-10T08:31:03.789Z,9.00
2023-03-10T08:33:32.573Z,9.00
2023-03-10T08:36:19.228Z,9.10
2023-03-10T08:38:47.164Z,9.20
2023-03-10T08:41:20.080Z,9.20
2023-03-10T08:43:49.523Z,9.10
2023-03-10T08:46:18.850Z,9.10
2023-03-10T08:48:46.475Z,9.10
2023-03-10T08:51:16.127Z,9.20
2023-03-10T08:53:47.119Z,10.00
2023-03-10T08:56:15.719Z,9.30
2023-03-10T08:58:43.785Z,9.50
2023-03-10T09:01:14.097Z,9.60
2023-03-10T09:03:44.760Z,9.70
2023-03-10T09:06:12.235Z,9.80
2023-03-10T09:08:41.358Z,9.70
2023-03-10T09:11:10.762Z,10.20
2023-03-10T09:13:38.736Z,9.80
2023-03-10T09:16:06.281Z,9.70
2023-03-10T09:18:33.546Z,9.80
2023-03-10T09:21:00.649Z,9.90
2023-03-10T09:23:28.708Z,9.80
2023-03-10T09:25:55.768Z,9.70
2023-03-10T09:28:24.189Z,9.70
2023-03-10T09:30:51.443Z,9.70
2023-03-10T09:33:20.715Z,9.80
2023-03-10T09:36:06.009Z,9.90
2023-03-10T09:38:35.050Z,10.00
2023-03-10T09:41:13.987Z,10.10
2023-03-10T09:43:50.808Z,10.20
2023-03-10T09:46:36.212Z,10.20
2023-03-10T09:49:19.257Z,10.20
2023-03-10T09:51:49.873Z,10.20
2023-03-10T09:54:32.011Z,10.20
2023-03-10T09:57:01.266Z,10.30
2023-03-10T09:59:38.443Z,10.20
2023-03-10T10:02:20.977Z,10.20
2023-03-10T10:04:53.837Z,10.20
2023-03-10T10:07:25.924Z,10.30
2023-03-10T10:10:04.481Z,10.30
2023-03-10T10:12:32.681Z,10.30
2023-03-10T10:15:15.789Z,10.20
2023-03-10T10:18:18.638Z,10.30
2023-03-10T10:21:00.574Z,10.30
2023-03-10T10:23:49.513Z,10.30
2023-03-10T10:26:24.484Z,10.30
2023-03-10T10:29:07.108Z,10.30
2023-03-10T10:31:36.080Z,10.30
2023-03-10T10:34:20.216Z,10.30
2023-03-10T10:36:57.240Z,10.40
2023-03-10T10:39:41.213Z,10.50
2023-03-10T10:42:33.035Z,10.60
2023-03-10T10:45:07.437Z,10.70
2023-03-10T10:47:50.500Z,10.70
2023-03-10T10:50:18.185Z,10.70
2023-03-10T10:52:53.057Z,10.70
2023-03-10T10:55:36.939Z,10.60
2023-03-10T10:58:27.261Z,10.60
2023-03-10T11:01:12.555Z,10.50
2023-03-10T11:03:46.465Z,10.40
2023-03-10T11:06:29.090Z,10.40
2023-03-10T11:09:12.652Z,10.40
2023-03-10T11:12:02.117Z,10.30
2023-03-10T11:15:10.166Z,10.40
2023-03-10T11:17:43.461Z,10.40
2023-03-10T11:20:52.668Z,10.30
2023-03-10T11:23:42.564Z,10.20
2023-03-10T11:27:15.833Z,10.30
2023-03-10T11:30:32.081Z,10.20
2023-03-10T11:33:17.542Z,10.20
2023-03-10T11:35:52.030Z,10.10
2023-03-10T11:38:40.138Z,10.00
2023-03-10T11:41:25.986Z,9.90
2023-03-10T11:44:05.223Z,9.90
2023-03-10T11:46:56.773Z,9.90
2023-03-10T11:49:27.480Z,9.90
2023-03-10T11:52:01.823Z,10.00
2023-03-10T11:54:37.014Z,9.90
2023-03-10T11:57:19.480Z,9.90
2023-03-10T12:00:00.089Z,10.00
2023-03-10T12:03:22.540Z,10.00
2023-03-10T12:05:58.330Z,10.00
2023-03-10T12:08:32.459Z,10.10
2023-03-10T12:11:03.425Z,10.00
2023-03-10T12:13:59.792Z,10.00
2023-03-10T12:16:36.580Z,10.00
2023-03-10T12:19:06.155Z,10.10
2023-03-10T12:21:33.907Z,10.10
2023-03-10T12:24:04.034Z,10.10
2023-03-10T12:26:40.894Z,10.00
2023-03-10T12:29:22.984Z,10.00
2023-03-10T12:31:52.861Z,10.00
2023-03-10T12:34:28.065Z,9.90
2023-03-10T12:37:08.580Z,9.80
2023-03-10T12:39:40.125Z,9.80
2023-03-10T12:42:31.781Z,9.90
2023-03-10T12:45:29.543Z,10.10
2023-03-10T12:48:04.427Z,10.20
2023-03-10T12:50:49.040Z,10.40
2023-03-10T12:53:41.247Z,10.40
2023-03-10T12:56:14.299Z,10.60
2023-03-10T12:59:12.117Z,10.80
2023-03-10T13:01:55.018Z,10.70
2023-03-10T13:04:24.517Z,10.70
2023-03-10T13:06:57.700Z,10.70
2023-03-10T13:09:33.343Z,10.70
2023-03-10T13:12:07.925Z,10.70
2023-03-10T13:14:39.821Z,10.80
2023-03-10T13:17:09.718Z,10.70
2023-03-10T13:19:38.253Z,10.70
2023-03-10T13:22:05.465Z,10.90
2023-03-10T13:24:36.362Z,11.00
2023-03-10T13:27:17.184Z,11.00
2023-03-10T13:30:15.758Z,11.00
2023-03-10T13:32:55.668Z,10.80
2023-03-10T13:35:36.217Z,10.80
2023-03-10T13:38:21.914Z,10.80
2023-03-10T13:40:51.961Z,10.90
2023-03-10T13:43:46.144Z,10.90
2023-03-10T13:46:32.523Z,11.20
2023-03-10T13:49:07.064Z,11.00
2023-03-10T13:51:37.824Z,10.90
2023-03-10T13:54:25.423Z,10.80
2023-03-10T13:57:15.111Z,10.80
2023-03-10T13:59:42.478Z,10.80
2023-03-10T14:02:32.484Z,10.80
2023-03-10T14:05:00.995Z,10.80
2023-03-10T14:07:31.781Z,10.80
2023-03-10T14:10:10.578Z,10.80
2023-03-10T14:12:53.450Z,10.80
2023-03-10T14:15:20.415Z,10.70
2023-03-10T14:18:08.600Z,10.80
2023-03-10T14:20:36.969Z,10.70
2023-03-10T14:23:19.284Z,10.60
2023-03-10T14:25:54.072Z,10.70
2023-03-10T14:28:31.393Z,10.90
2023-03-10T14:31:02.736Z,11.20
2023-03-10T14:33:30.033Z,11.10
2023-03-10T14:35:57.134Z,11.10
2023-03-10T14:38:24.652Z,11.00
2023-03-10T14:40:53.965Z,10.80
2023-03-10T14:43:28.469Z,10.90
2023-03-10T14:45:58.350Z,11.00
2023-03-10T14:48:30.113Z,11.00
2023-03-10T14:50:57.309Z,11.20
2023-03-10T14:53:26.610Z,11.00
2023-03-10T14:55:58.674Z,10.90
2023-03-10T14:58:45.483Z,10.90
2023-03-10T15:01:12.734Z,10.90
2023-03-10T15:03:41.367Z,10.90
2023-03-10T15:06:13.167Z,10.70
2023-03-10T15:08:40.898Z,10.70
2023-03-10T15:11:08.549Z,10.60
2023-03-10T15:13:38.337Z,10.30
2023-03-10T15:16:07.225Z,10.00
2023-03-10T15:18:34.761Z,9.80
2023-03-10T15:21:03.501Z,9.40
2023-03-10T15:23:31.299Z,9.10
2023-03-10T15:25:59.259Z,9.10
2023-03-10T15:28:26.242Z,9.20
2023-03-10T15:30:55.040Z,9.40
2023-03-10T15:33:22.083Z,9.40
2023-03-10T15:35:50.209Z,9.50
2023-03-10T15:38:17.355Z,9.50
2023-03-10T15:40:44.751Z,9.30
2023-03-10T15:43:12.008Z,9.30
2023-03-10T15:45:43.667Z,9.50
2023-03-10T15:48:11.385Z,9.40
2023-03-10T15:50:43.490Z,9.30
2023-03-10T15:53:10.875Z,9.30
2023-03-10T15:55:41.655Z,9.30
2023-03-10T15:58:11.050Z,9.30
2023-03-10T16:00:38.304Z,9.30
2023-03-10T16:03:05.482Z,9.30
2023-03-10T16:05:32.910Z,9.30
2023-03-10T16:08:00.051Z,9.30
2023-03-10T16:10:27.221Z,9.30
2023-03-10T16:12:54.353Z,9.20
2023-03-10T16:15:22.486Z,9.00
2023-03-10T16:17:49.462Z,8.90
2023-03-10T16:20:19.158Z,8.80
2023-03-10T16:22:46.330Z,8.70
2023-03-10T16:25:19.077Z,8.60
2023-03-10T16:27:47.118Z,8.60
2023-03-10T16:30:16.679Z,8.60
2023-03-10T16:32:49.064Z,8.60
2023-03-10T16:35:17.700Z,8.60
2023-03-10T16:37:44.952Z,8.60
2023-03-10T16:40:12.873Z,8.50
2023-03-10T16:42:43.300Z,8.50
2023-03-10T16:45:11.081Z,8.40
2023-03-10T16:47:38.347Z,8.40
2023-03-10T16:50:06.082Z,8.40
2023-03-10T16:52:42.630Z,8.30
2023-03-10T16:55:18.436Z,8.30
2023-03-10T16:57:46.126Z,8.20
2023-03-10T17:00:14.761Z,8.20
2023-03-10T17:02:41.756Z,8.10
2023-03-10T17:05:10.204Z,8.10
2023-03-10T17:07:46.496Z,8.20
2023-03-10T17:10:20.654Z,8.10
2023-03-10T17:12:47.702Z,8.00
2023-03-10T17:15:14.681Z,7.90
2023-03-10T17:17:41.638Z,7.70
2023-03-10T17:20:09.598Z,7.60
2023-03-10T17:22:37.949Z,7.50
2023-03-10T17:25:06.694Z,7.50
2023-03-10T17:27:33.740Z,7.50
2023-03-10T17:30:00.838Z,7.50
2023-03-10T17:32:28.416Z,7.50
2023-03-10T17:34:55.499Z,7.40
2023-03-10T17:37:22.461Z,7.40
2023-03-10T17:39:49.572Z,7.30
2023-03-10T17:42:17.200Z,7.30
2023-03-10T17:44:44.279Z,7.30
2023-03-10T17:47:12.265Z,7.40
2023-03-10T17:49:40.600Z,7.30
2023-03-10T17:52:07.811Z,7.30
2023-03-10T17:54:34.999Z,7.40
2023-03-10T17:57:02.028Z,7.30
2023-03-10T17:59:29.540Z,7.20
2023-03-10T18:01:56.507Z,7.20
2023-03-10T18:04:23.599Z,7.20
2023-03-10T18:06:50.681Z,7.20
2023-03-10T18:09:17.761Z,7.10
2023-03-10T18:11:45.018Z,7.20
2023-03-10T18:14:12.768Z,7.20
2023-03-10T18:16:41.185Z,7.10
2023-03-10T18:19:11.168Z,7.10
2023-03-10T18:21:39.374Z,7.00
2023-03-10T18:24:08.434Z,7.00
2023-03-10T18:26:36.667Z,7.00
2023-03-10T18:29:04.255Z,7.00
2023-03-10T18:31:33.588Z,7.00
2023-03-10T18:34:01.436Z,6.90
2023-03-10T18:36:29.932Z,6.90
2023-03-10T18:38:57.576Z,6.80
2023-03-10T18:41:27.461Z,6.50
2023-03-10T18:43:54.512Z,6.40
2023-03-10T18:46:22.467Z,6.30
2023-03-10T18:48:55.509Z,6.10
2023-03-10T18:51:27.207Z,6.00
2023-03-10T18:53:55.059Z,6.00
2023-03-10T18:56:22.464Z,6.20
2023-03-10T18:58:49.532Z,6.00
2023-03-10T19:01:17.274Z,5.90
2023-03-10T19:03:44.343Z,5.90
2023-03-10T19:06:11.539Z,5.90
2023-03-10T19:08:39.930Z,5.80
2023-03-10T19:11:07.551Z,5.70
2023-03-10T19:13:35.836Z,5.70
2023-03-10T19:16:08.106Z,5.60
2023-03-10T19:18:35.950Z,5.60
2023-03-10T19:21:03.797Z,5.50
2023-03-10T19:23:32.292Z,5.40
2023-03-10T19:25:59.437Z,5.40
2023-03-10T19:28:26.475Z,5.40
2023-03-10T19:30:53.594Z,5.40
2023-03-10T19:33:20.583Z,5.30
2023-03-10T19:35:47.544Z,5.30
2023-03-10T19:38:15.064Z,5.30
2023-03-10T19:40:46.290Z,5.20
2023-03-10T19:43:18.374Z,5.10
2023-03-10T19:45:50.229Z,5.20
2023-03-10T19:48:17.544Z,5.10
2023-03-10T19:50:44.596Z,5.00
2023-03-10T19:53:11.695Z,5.00
2023-03-10T19:55:38.881Z,4.90
2023-03-10T19:58:09.046Z,4.90
2023-03-10T20:00:36.421Z,4.90
2023-03-10T20:03:04.051Z,4.90
2023-03-10T20:05:31.283Z,4.90
2023-03-10T20:07:58.469Z,4.80
2023-03-10T20:10:25.849Z,4.90
2023-03-10T20:12:53.069Z,4.80
2023-03-10T20:15:20.235Z,4.80
2023-03-10T20:17:48.515Z,4.80
2023-03-10T20:20:15.721Z,4.80
2023-03-10T20:22:45.652Z,4.80
2023-03-10T20:25:17.104Z,4.80
2023-03-10T20:27:46.727Z,4.80
2023-03-10T20:30:29.640Z,4.70
2023-03-10T20:32:58.385Z,4.70
2023-03-10T20:35:27.911Z,4.70
2023-03-10T20:37:55.452Z,4.70
2023-03-10T20:40:24.417Z,4.70
2023-03-10T20:42:55.586Z,4.70
2023-03-10T20:45:23.490Z,4.60
2023-03-10T20:47:50.725Z,4.70
2023-03-10T20:50:18.090Z,4.60
2023-03-10T20:52:45.279Z,4.60
2023-03-10T20:55:23.249Z,4.80
2023-03-10T20:57:53.841Z,4.60
2023-03-10T21:00:24.734Z,4.60
2023-03-10T21:02:57.466Z,4.60
2023-03-10T21:05:27.215Z,4.50
2023-03-10T21:07:55.007Z,4.50
2023-03-10T21:10:22.439Z,4.60
2023-03-10T21:12:51.071Z,4.50
2023-03-10T21:15:19.623Z,4.50
2023-03-10T21:17:47.768Z,4.50
2023-03-10T21:20:23.480Z,4.40
2023-03-10T21:22:50.868Z,4.40
2023-03-10T21:25:23.231Z,4.40
2023-03-10T21:27:55.802Z,4.40
2023-03-10T21:30:23.617Z,4.40
2023-03-10T21:32:50.793Z,4.40
2023-03-10T21:35:17.899Z,4.40
2023-03-10T21:37:48.626Z,4.40
2023-03-10T21:40:20.364Z,4.30
2023-03-10T21:42:50.682Z,4.30
2023-03-10T21:45:21.642Z,4.30
2023-03-10T21:47:49.816Z,4.30
2023-03-10T21:50:17.817Z,4.30
2023-03-10T21:52:46.288Z,4.30
2023-03-10T21:55:22.052Z,4.20
2023-03-10T21:57:50.233Z,4.20
2023-03-10T22:00:19.973Z,4.10
2023-03-10T22:02:49.130Z,4.10
2023-03-10T22:05:18.504Z,4.10
2023-03-10T22:07:45.617Z,4.10
2023-03-10T22:10:14.201Z,4.00
2023-03-10T22:12:41.449Z,4.00
2023-03-10T22:15:16.524Z,4.00
2023-03-10T22:17:43.464Z,3.90
2023-03-10T22:20:20.751Z,3.90
2023-03-10T22:22:48.549Z,3.90
2023-03-10T22:25:16.857Z,3.80
2023-03-10T22:27:48.145Z,3.90
2023-03-10T22:30:15.704Z,4.00
2023-03-10T22:32:43.226Z,3.90
2023-03-10T22:35:10.944Z,3.90
2023-03-10T22:37:39.552Z,3.90
2023-03-10T22:40:13.504Z,3.90
2023-03-10T22:42:41.386Z,3.80
2023-03-10T22:45:19.632Z,3.90
2023-03-10T22:47:47.567Z,3.90
2023-03-10T22:50:19.361Z,4.00
2023-03-10T22:52:46.404Z,3.80
2023-03-10T22:55:19.985Z,3.90
2023-03-10T22:57:47.044Z,3.80
2023-03-10T23:00:21.254Z,3.70
2023-03-10T23:02:50.512Z,3.70
2023-03-10T23:05:17.897Z,3.70
2023-03-10T23:07:44.962Z,3.70
2023-03-10T23:10:34.160Z,3.70
2023-03-10T23:13:05.828Z,3.60
2023-03-10T23:15:36.611Z,3.50
2023-03-10T23:18:05.352Z,3.40
2023-03-10T23:20:40.464Z,3.30
2023-03-10T23:23:09.468Z,3.20
2023-03-10T23:25:39.891Z,3.20
2023-03-10T23:28:09.345Z,3.10
2023-03-10T23:30:39.317Z,3.10
2023-03-10T23:33:10.376Z,3.00
2023-03-10T23:35:37.417Z,3.00
2023-03-10T23:38:06.524Z,2.90
2023-03-10T23:40:36.080Z,3.00
2023-03-10T23:43:07.022Z,2.90
2023-03-10T23:45:36.846Z,2.80
2023-03-10T23:48:08.833Z,2.70
2023-03-10T23:50:40.057Z,2.70
2023-03-10T23:53:08.542Z,2.90
2023-03-10T23:55:39.769Z,2.70
2023-03-10T23:58:08.077Z,2.70
